createdAt,value
2023-08-30T00:00:55.475Z,3.95
2023-08-30T00:10:59.681Z,3.78
2023-08-30T00:21:03.871Z,3.88
2023-08-30T00:31:07.385Z,4.22
2023-08-30T00:41:11.453Z,4.25
2023-08-30T00:51:14.474Z,4.60
2023-08-30T01:01:19.753Z,4.57
2023-08-30T01:11:28.093Z,4.80
2023-08-30T01:21:45.928Z,5.35
2023-08-30T01:31:51.046Z,5.43
2023-08-30T01:41:59.791Z,5.25
2023-08-30T01:52:04.541Z,5.95
2023-08-30T02:02:07.241Z,6.63
2023-08-30T02:12:16.740Z,6.45
2023-08-30T02:22:19.513Z,6.85
2023-08-30T02:32:23.560Z,7.00
2023-08-30T02:42:27.139Z,7.20
2023-08-30T02:52:31.227Z,7.05
2023-08-30T03:02:34.105Z,7.60
2023-08-30T03:12:38.197Z,8.43
2023-08-30T03:22:40.910Z,8.73
2023-08-30T03:32:45.002Z,9.68
2023-08-30T03:42:47.728Z,9.32
2023-08-30T03:52:51.897Z,9.48
2023-08-30T04:02:54.654Z,10.35
2023-08-30T04:12:58.770Z,9.50
2023-08-30T04:23:02.669Z,9.52
2023-08-30T04:33:07.382Z,10.25
2023-08-30T04:43:10.143Z,11.02
2023-08-30T04:53:14.169Z,10.82
2023-08-30T05:03:16.892Z,10.35
2023-08-30T05:13:21.134Z,9.80
2023-08-30T05:23:23.889Z,9.57
2023-08-30T05:33:28.036Z,9.27
2023-08-30T05:43:30.709Z,8.95
2023-08-30T05:53:34.833Z,9.13
2023-08-30T06:03:37.628Z,9.13
2023-08-30T06:13:41.684Z,9.35
2023-08-30T06:23:44.332Z,8.95
2023-08-30T06:33:49.266Z,9.98
2023-08-30T06:43:51.936Z,8.40
2023-08-30T06:54:01.336Z,8.07
2023-08-30T07:04:04.391Z,8.27
2023-08-30T07:14:08.589Z,8.32
2023-08-30T07:24:11.494Z,8.27
2023-08-30T07:34:15.941Z,8.63
2023-08-30T07:44:20.840Z,8.20
2023-08-30T07:54:25.024Z,7.97
2023-08-30T08:04:27.952Z,7.55
2023-08-30T08:14:32.227Z,7.72
2023-08-30T08:24:35.051Z,7.50
2023-08-30T08:34:39.238Z,7.15
2023-08-30T08:44:43.657Z,6.50
2023-08-30T08:54:47.885Z,6.60
2023-08-30T09:04:50.727Z,6.05
2023-08-30T09:14:58.911Z,6.70
2023-08-30T09:25:01.837Z,7.23
2023-08-30T09:35:08.328Z,6.75
2023-08-30T09:45:20.058Z,5.95
2023-08-30T09:55:25.789Z,6.72
2023-08-30T10:05:29.090Z,6.00
2023-08-30T10:15:37.172Z,5.70
2023-08-30T10:25:40.654Z,4.97
2023-08-30T10:35:52.460Z,5.50
2023-08-30T10:46:01.695Z,5.45
2023-08-30T10:56:15.653Z,5.57
2023-08-30T11:06:20.427Z,5.75
2023-08-30T11:16:27.524Z,5.90
2023-08-30T11:26:30.479Z,6.10
2023-08-30T11:36:37.767Z,6.00
2023-08-30T11:46:40.489Z,6.43
2023-08-30T11:56:45.090Z,6.43
2023-08-30T12:06:54.321Z,6.65
2023-08-30T12:17:01.816Z,7.95
2023-08-30T12:27:05.758Z,8.20
2023-08-30T12:37:09.785Z,8.30
2023-08-30T12:47:15.004Z,8.27
2023-08-30T12:57:19.029Z,5.90
2023-08-30T13:07:21.666Z,7.22
2023-08-30T13:17:25.678Z,7.47
2023-08-30T13:27:29.395Z,9.40
2023-08-30T13:37:33.506Z,10.02
2023-08-30T13:47:36.218Z,10.15
2023-08-30T13:57:40.281Z,11.52
2023-08-30T14:07:42.942Z,12.40
2023-08-30T14:17:46.965Z,14.23
2023-08-30T14:27:50.061Z,12.70
2023-08-30T14:37:54.074Z,11.25
2023-08-30T14:47:56.759Z,11.50
2023-08-30T14:58:00.832Z,8.63
2023-08-30T15:08:03.754Z,7.78
2023-08-30T15:18:08.127Z,7.53
2023-08-30T15:28:10.943Z,7.90
2023-08-30T15:38:15.178Z,8.68
2023-08-30T15:48:18.044Z,9.45
2023-08-30T15:58:22.365Z,8.93
2023-08-30T16:08:28.777Z,7.40
2023-08-30T16:18:33.354Z,1.10
2023-08-30T16:28:37.597Z,1.30
2023-08-30T16:38:41.839Z,1.25
2023-08-30T16:48:44.517Z,2.03
2023-08-30T16:58:48.672Z,1.92
2023-08-30T17:08:51.586Z,1.75
2023-08-30T17:18:55.582Z,1.80
2023-08-30T17:28:58.277Z,2.40
2023-08-30T17:39:02.283Z,3.08
2023-08-30T17:49:05.027Z,2.97
2023-08-30T17:59:09.150Z,3.15
2023-08-30T18:09:15.726Z,3.17
2023-08-30T18:19:20.186Z,3.38
2023-08-30T18:29:24.704Z,3.25
2023-08-30T18:39:28.869Z,3.50
2023-08-30T18:49:31.636Z,4.22
2023-08-30T18:59:36.003Z,3.85
2023-08-30T19:09:39.276Z,3.78
2023-08-30T19:19:43.354Z,4.00
2023-08-30T19:29:47.501Z,3.75
2023-08-30T19:39:51.665Z,4.32
2023-08-30T19:49:54.413Z,4.95
2023-08-30T19:59:58.393Z,4.97
2023-08-30T20:10:01.090Z,4.38
2023-08-30T20:20:08.106Z,2.88
2023-08-30T20:30:11.580Z,2.15
2023-08-30T20:40:16.116Z,1.90
2023-08-30T20:50:18.791Z,1.30
2023-08-30T21:00:23.008Z,1.33
2023-08-30T21:10:25.807Z,1.02
2023-08-30T21:20:29.783Z,1.20
2023-08-30T21:30:33.434Z,1.70
2023-08-30T21:40:38.689Z,1.63
2023-08-30T21:50:41.459Z,2.00
2023-08-30T22:00:45.508Z,1.80
2023-08-30T22:10:48.208Z,2.03
2023-08-30T22:20:52.684Z,2.20
2023-08-30T22:30:55.549Z,2.38
2023-08-30T22:41:00.524Z,1.98
2023-08-30T22:51:05.075Z,2.00
2023-08-30T23:01:09.939Z,1.95
2023-08-30T23:11:12.752Z,1.60
2023-08-30T23:21:17.413Z,1.77
2023-08-30T23:31:20.246Z,1.60
2023-08-30T23:41:24.241Z,1.50
2023-08-30T23:51:26.952Z,1.52
